• location
  • image
mod_vvisit_countermod_vvisit_countermod_vvisit_countermod_vvisit_countermod_vvisit_countermod_vvisit_counter
mod_vvisit_counterToday500
mod_vvisit_counterYesterday583
mod_vvisit_counterThis week2494
mod_vvisit_counterLast week3752
mod_vvisit_counterThis month11802
mod_vvisit_counterLast month17836
mod_vvisit_counterAll days923452

We have: 30 guests online
Your IP: 54.92.150.98
 , 
Today: Jun 21, 2018
Airport / Company / List of services

List of services

  

Services of Siauliai International Airport:

 

Leading (follow me)

Ground services

Aircraft loading/unloading

Aircraft parking

Aircraft security

Aircraft fuel supply

Passenger baggage service

Business class passenger service

Submission of information to passengers

Serving meals to passengers and crew

Additional services for aircraft crewmembers

Aviation Security

Dining Cafe

First medical aid

Hotel reservations

Transporting crew to/from the city

Taxi booking 

Border procedures

Customs procedures

 

Today

Thursday, 21 June 2018

Aviation Weather Forecast

[source: ADDS]
METAR
EYSA 211950Z 28013KT 9000 -TSRA FEW007 SCT010 OVC037CB 12/11 Q1003 GRN NOSIG =
TAF
TAF EYSA 211705Z 2118/2203 28010KT 7000 BKN015 TEMPO 2118/2122 28020G30KT 3000 TSRA SCT005 BKN018CB BECMG 2122/2124 22010KT BECMG 2200/2201 SCT025 =
SR / SS: 01:48 / 19:11 UTC (EYSA 2018-06-21)

Search

Who's Online

We have 30 guests online

tic logo en